Home   Weather   Canada   Arviat   Past weeks
Flag for Canada

Past Weather in Arviat, Nunavut, Canada — Yesterday and Last 2 Weeks

Currently: -9 °F. Passing clouds. (Weather station: Arviat Airport, Canada). See more current weather

Past Weather in Arviat — Graph

°F

Arviat Temperature Yesterday

Maximum temperature yesterday: -15 °F (at 3:00 pm)
Minimum temperature yesterday: -36 °F (at 3:00 am)
Average temperature yesterday: -23 °F

High & Low Weather Summary for the Past Weeks

 TemperatureHumidityPressure
High10 °F (Feb 20, 12:00 am)92% (Feb 20, 9:00 pm)30.21 "Hg (Feb 20, 9:00 pm)
Low-36 °F (Feb 28, 3:00 am)59% (Feb 28, 4:00 am)29.10 "Hg (Feb 22, 3:36 am)
Average-13 °F74%29.73 "Hg
* Reported Feb 14 4:00 pm — Mar 1 4:00 pm, Arviat. Weather by CustomWeather, © 2021

Note: Actual official high and low records may vary slightly from our data, if they occured in-between our weather recording intervals... More about our weather records

Arviat Weather History for the Previous 24 Hours

Scroll right to see more
 ConditionsComfort  
Time TempWeatherWind HumidityBarometerVisibility
4:00 pm
Mon, Mar 1
-8 °FSunny.13 mph77%29.84 "Hg15 mi
3:00 pm-8 °FLow level haze.16 mph77%29.83 "Hg15 mi
2:00 pm-8 °FLow level haze.16 mph77%29.84 "Hg15 mi
1:00 pm-8 °FPartly sunny.18 mph77%29.83 "Hg15 mi
12:00 pm-8 °FScattered clouds.15 mph70%29.84 "Hg15 mi
11:00 am-9 °FPartly sunny.17 mph77%29.84 "Hg10 mi
10:00 am-9 °FOvercast.17 mph77%29.85 "Hg6 mi
9:00 am-9 °FOvercast.20 mph70%29.85 "Hg10 mi
8:26 am-11 °FMore clouds than sun.20 mph76%29.86 "Hg4 mi
8:03 am-11 °FLight snow. Overcast.20 mph76%29.86 "Hg2 mi
7:00 am-13 °FMostly cloudy.15 mph76%29.86 "Hg15 mi
6:38 am-13 °FMostly cloudy.17 mph76%29.87 "Hg9 mi
6:00 am-15 °FOvercast.16 mph76%29.87 "Hg9 mi
5:21 am-18 °FPartly cloudy.18 mph75%29.86 "Hg9 mi
5:07 am-17 °FPassing clouds.14 mph69%29.87 "Hg9 mi
4:39 am-17 °FPassing clouds.22 mph69%29.87 "Hg5 mi
4:10 am-17 °FHaze.21 mph69%29.88 "Hg6 mi
3:18 am-18 °FOvercast.17 mph75%29.88 "Hg6 mi
3:03 am-18 °FOvercast.25 mph69%29.88 "Hg3 mi
2:01 am-18 °FOvercast.21 mph69%29.89 "Hg5 mi
1:33 am-18 °FOvercast.24 mph69%29.89 "Hg2 mi
12:51 am-18 °FOvercast.24 mph75%29.89 "Hg2 mi
12:28 am-17 °FOvercast.26 mph76%29.88 "Hg2 mi
12:12 am-17 °FOvercast.23 mph76%29.89 "Hg2 mi
12:08 am-17 °FOvercast.23 mph76%29.89 "Hg2 mi
11:56 pm
Sun, Feb 28
-17 °FLight snow. Mostly cloudy.24 mph76%29.89 "Hg1 mi
11:28 pm-17 °FOvercast.21 mph69%29.88 "Hg2 mi
11:01 pm-18 °FPassing clouds.17 mph69%29.89 "Hg5 mi
10:32 pm-20 °FClear.23 mph75%29.88 "Hg4 mi
10:23 pm-18 °FLight snow. Passing clouds.22 mph75%29.89 "Hg1 mi
10:00 pm-18 °FPassing clouds.22 mph75%29.88 "Hg2 mi
9:19 pm-18 °FClear.22 mph75%29.88 "Hg5 mi
8:57 pm-18 °FHaze.18 mph69%29.89 "Hg6 mi
8:00 pm-17 °FPassing clouds.13 mph69%29.90 "Hg9 mi
7:00 pm-18 °FClear.13 mph75%29.90 "Hg9 mi
6:00 pm-17 °FPassing clouds.12 mph76%29.90 "Hg9 mi
5:23 pm-15 °FHaze.17 mph76%29.90 "Hg6 mi
5:00 pm-15 °FSunny.18 mph76%29.89 "Hg3 mi
Weather by CustomWeather, © 2021

See weather overview